sensor_id;sensor_type;location;lat;lon;timestamp;P1;durP1;ratioP1;P2;durP2;ratioP2
70780;SDS011;59514;48.810;2.134;2022-09-20T00:00:25;3.20;;;1.10;;
70780;SDS011;59514;48.810;2.134;2022-09-20T00:02:51;2.78;;;0.82;;
70780;SDS011;59514;48.810;2.134;2022-09-20T00:05:16;7.25;;;1.20;;
70780;SDS011;59514;48.810;2.134;2022-09-20T00:07:45;3.63;;;1.20;;
70780;SDS011;59514;48.810;2.134;2022-09-20T00:10:10;5.55;;;1.35;;
70780;SDS011;59514;48.810;2.134;2022-09-20T00:12:36;5.45;;;1.33;;
70780;SDS011;59514;48.810;2.134;2022-09-20T00:15:01;5.10;;;1.20;;
70780;SDS011;59514;48.810;2.134;2022-09-20T00:17:26;3.08;;;1.30;;
70780;SDS011;59514;48.810;2.134;2022-09-20T00:19:52;8.15;;;1.30;;
70780;SDS011;59514;48.810;2.134;2022-09-20T00:22:17;4.00;;;1.05;;
70780;SDS011;59514;48.810;2.134;2022-09-20T00:24:42;5.07;;;1.13;;
70780;SDS011;59514;48.810;2.134;2022-09-20T00:27:07;2.22;;;1.10;;
70780;SDS011;59514;48.810;2.134;2022-09-20T00:29:33;2.90;;;1.27;;
70780;SDS011;59514;48.810;2.134;2022-09-20T00:31:58;2.40;;;1.15;;
70780;SDS011;59514;48.810;2.134;2022-09-20T00:34:23;2.85;;;1.42;;
70780;SDS011;59514;48.810;2.134;2022-09-20T00:37:08;4.15;;;1.33;;
70780;SDS011;59514;48.810;2.134;2022-09-20T00:39:33;4.80;;;1.40;;
70780;SDS011;59514;48.810;2.134;2022-09-20T00:41:58;3.72;;;1.08;;
70780;SDS011;59514;48.810;2.134;2022-09-20T00:47:13;4.03;;;1.60;;
70780;SDS011;59514;48.810;2.134;2022-09-20T00:49:48;2.42;;;1.10;;
70780;SDS011;59514;48.810;2.134;2022-09-20T00:52:16;4.18;;;1.05;;
70780;SDS011;59514;48.810;2.134;2022-09-20T00:54:42;3.33;;;1.13;;
70780;SDS011;59514;48.810;2.134;2022-09-20T00:57:07;3.55;;;1.10;;
70780;SDS011;59514;48.810;2.134;2022-09-20T00:59:33;5.43;;;1.63;;
70780;SDS011;59514;48.810;2.134;2022-09-20T01:02:20;2.08;;;1.15;;
70780;SDS011;59514;48.810;2.134;2022-09-20T01:04:50;3.97;;;1.20;;
70780;SDS011;59514;48.810;2.134;2022-09-20T01:07:16;3.30;;;1.15;;
70780;SDS011;59514;48.810;2.134;2022-09-20T01:09:46;4.53;;;1.63;;
70780;SDS011;59514;48.810;2.134;2022-09-20T01:12:13;2.05;;;1.00;;
70780;SDS011;59514;48.810;2.134;2022-09-20T01:14:43;4.05;;;1.55;;
70780;SDS011;59514;48.810;2.134;2022-09-20T01:17:10;4.03;;;1.52;;
70780;SDS011;59514;48.810;2.134;2022-09-20T01:22:47;4.53;;;1.35;;
70780;SDS011;59514;48.810;2.134;2022-09-20T01:28:02;2.38;;;1.25;;
70780;SDS011;59514;48.810;2.134;2022-09-20T01:30:30;4.35;;;1.40;;
70780;SDS011;59514;48.810;2.134;2022-09-20T01:33:10;1.63;;;0.98;;
70780;SDS011;59514;48.810;2.134;2022-09-20T01:35:46;4.25;;;1.15;;
70780;SDS011;59514;48.810;2.134;2022-09-20T01:40:47;3.15;;;1.20;;
70780;SDS011;59514;48.810;2.134;2022-09-20T01:43:34;3.17;;;1.33;;
70780;SDS011;59514;48.810;2.134;2022-09-20T01:51:41;2.05;;;1.10;;
70780;SDS011;59514;48.810;2.134;2022-09-20T01:57:27;2.38;;;1.10;;
70780;SDS011;59514;48.810;2.134;2022-09-20T02:24:25;3.42;;;1.33;;
70780;SDS011;59514;48.810;2.134;2022-09-20T02:38:08;3.60;;;1.08;;
70780;SDS011;59514;48.810;2.134;2022-09-20T02:43:33;1.70;;;1.30;;
70780;SDS011;59514;48.810;2.134;2022-09-20T02:54:50;4.97;;;1.45;;
70780;SDS011;59514;48.810;2.134;2022-09-20T02:57:25;3.47;;;1.23;;
70780;SDS011;59514;48.810;2.134;2022-09-20T03:00:04;4.85;;;1.30;;
70780;SDS011;59514;48.810;2.134;2022-09-20T03:02:45;4.88;;;1.83;;
70780;SDS011;59514;48.810;2.134;2022-09-20T03:05:23;3.00;;;1.48;;
70780;SDS011;59514;48.810;2.134;2022-09-20T03:10:19;3.90;;;1.70;;
70780;SDS011;59514;48.810;2.134;2022-09-20T03:24:38;3.72;;;1.60;;
70780;SDS011;59514;48.810;2.134;2022-09-20T03:27:22;2.28;;;1.20;;
70780;SDS011;59514;48.810;2.134;2022-09-20T03:47:57;3.65;;;1.42;;
70780;SDS011;59514;48.810;2.134;2022-09-20T03:50:36;4.45;;;1.70;;
70780;SDS011;59514;48.810;2.134;2022-09-20T04:01:40;5.47;;;1.30;;
70780;SDS011;59514;48.810;2.134;2022-09-20T04:12:51;2.38;;;1.20;;
70780;SDS011;59514;48.810;2.134;2022-09-20T04:15:30;4.05;;;1.60;;
70780;SDS011;59514;48.810;2.134;2022-09-20T04:24:08;5.45;;;1.50;;
70780;SDS011;59514;48.810;2.134;2022-09-20T04:26:46;2.58;;;1.48;;
70780;SDS011;59514;48.810;2.134;2022-09-20T04:29:24;2.58;;;1.33;;
70780;SDS011;59514;48.810;2.134;2022-09-20T04:38:23;2.88;;;1.25;;
70780;SDS011;59514;48.810;2.134;2022-09-20T04:49:11;2.85;;;1.10;;
70780;SDS011;59514;48.810;2.134;2022-09-20T04:52:12;3.20;;;1.35;;
70780;SDS011;59514;48.810;2.134;2022-09-20T05:23:11;3.05;;;1.58;;
70780;SDS011;59514;48.810;2.134;2022-09-20T05:25:43;1.70;;;1.40;;
70780;SDS011;59514;48.810;2.134;2022-09-20T05:28:32;3.72;;;1.70;;
70780;SDS011;59514;48.810;2.134;2022-09-20T05:31:08;4.10;;;1.60;;
70780;SDS011;59514;48.810;2.134;2022-09-20T05:33:46;6.13;;;1.77;;
70780;SDS011;59514;48.810;2.134;2022-09-20T05:39:15;3.78;;;1.90;;
70780;SDS011;59514;48.810;2.134;2022-09-20T05:41:57;3.17;;;1.55;;
70780;SDS011;59514;48.810;2.134;2022-09-20T05:44:30;2.38;;;1.40;;
70780;SDS011;59514;48.810;2.134;2022-09-20T05:47:23;4.97;;;1.80;;
70780;SDS011;59514;48.810;2.134;2022-09-20T05:52:59;2.15;;;1.80;;
70780;SDS011;59514;48.810;2.134;2022-09-20T06:01:44;5.60;;;2.60;;
70780;SDS011;59514;48.810;2.134;2022-09-20T06:07:30;4.25;;;1.80;;
70780;SDS011;59514;48.810;2.134;2022-09-20T06:15:55;3.17;;;1.83;;
70780;SDS011;59514;48.810;2.134;2022-09-20T06:21:41;5.53;;;2.17;;
70780;SDS011;59514;48.810;2.134;2022-09-20T06:24:20;6.22;;;2.13;;
70780;SDS011;59514;48.810;2.134;2022-09-20T06:26:58;5.07;;;1.90;;
70780;SDS011;59514;48.810;2.134;2022-09-20T06:29:32;5.75;;;2.08;;
70780;SDS011;59514;48.810;2.134;2022-09-20T06:32:00;4.65;;;1.58;;
70780;SDS011;59514;48.810;2.134;2022-09-20T06:34:26;5.55;;;1.70;;
70780;SDS011;59514;48.810;2.134;2022-09-20T06:37:17;4.20;;;2.00;;
70780;SDS011;59514;48.810;2.134;2022-09-20T06:40:29;4.63;;;2.10;;
70780;SDS011;59514;48.810;2.134;2022-09-20T06:43:22;5.72;;;1.90;;
70780;SDS011;59514;48.810;2.134;2022-09-20T06:45:47;5.55;;;1.90;;
70780;SDS011;59514;48.810;2.134;2022-09-20T06:48:13;3.97;;;2.03;;
70780;SDS011;59514;48.810;2.134;2022-09-20T06:50:39;5.85;;;2.30;;
70780;SDS011;59514;48.810;2.134;2022-09-20T06:53:09;3.67;;;2.10;;
70780;SDS011;59514;48.810;2.134;2022-09-20T06:55:40;4.32;;;2.22;;
70780;SDS011;59514;48.810;2.134;2022-09-20T06:58:07;3.10;;;2.13;;
70780;SDS011;59514;48.810;2.134;2022-09-20T07:00:34;3.78;;;1.75;;
70780;SDS011;59514;48.810;2.134;2022-09-20T07:02:59;6.03;;;2.50;;
70780;SDS011;59514;48.810;2.134;2022-09-20T07:05:24;4.80;;;2.42;;
70780;SDS011;59514;48.810;2.134;2022-09-20T07:07:54;5.20;;;1.90;;
70780;SDS011;59514;48.810;2.134;2022-09-20T07:10:21;5.40;;;2.00;;
70780;SDS011;59514;48.810;2.134;2022-09-20T07:12:47;2.67;;;2.15;;
70780;SDS011;59514;48.810;2.134;2022-09-20T07:15:12;4.03;;;2.58;;
70780;SDS011;59514;48.810;2.134;2022-09-20T07:17:39;7.55;;;2.85;;
70780;SDS011;59514;48.810;2.134;2022-09-20T07:20:08;5.90;;;2.40;;
70780;SDS011;59514;48.810;2.134;2022-09-20T07:22:34;6.97;;;2.70;;
70780;SDS011;59514;48.810;2.134;2022-09-20T07:24:59;4.45;;;2.10;;
70780;SDS011;59514;48.810;2.134;2022-09-20T07:27:26;7.47;;;2.20;;
70780;SDS011;59514;48.810;2.134;2022-09-20T07:29:53;6.82;;;3.20;;
70780;SDS011;59514;48.810;2.134;2022-09-20T07:32:18;6.05;;;2.60;;
70780;SDS011;59514;48.810;2.134;2022-09-20T07:34:44;5.30;;;2.03;;
70780;SDS011;59514;48.810;2.134;2022-09-20T07:37:10;5.32;;;2.20;;
70780;SDS011;59514;48.810;2.134;2022-09-20T07:39:35;6.53;;;2.42;;
70780;SDS011;59514;48.810;2.134;2022-09-20T07:42:00;5.70;;;2.40;;
70780;SDS011;59514;48.810;2.134;2022-09-20T07:44:30;5.63;;;2.10;;
70780;SDS011;59514;48.810;2.134;2022-09-20T07:46:56;3.70;;;1.92;;
70780;SDS011;59514;48.810;2.134;2022-09-20T07:49:23;6.55;;;2.30;;
70780;SDS011;59514;48.810;2.134;2022-09-20T07:51:50;4.13;;;2.25;;
70780;SDS011;59514;48.810;2.134;2022-09-20T07:54:16;5.25;;;2.50;;
70780;SDS011;59514;48.810;2.134;2022-09-20T07:56:43;3.60;;;2.10;;
70780;SDS011;59514;48.810;2.134;2022-09-20T07:59:09;5.88;;;2.45;;
70780;SDS011;59514;48.810;2.134;2022-09-20T08:01:35;7.68;;;2.30;;
70780;SDS011;59514;48.810;2.134;2022-09-20T08:06:31;5.95;;;2.65;;
70780;SDS011;59514;48.810;2.134;2022-09-20T08:09:01;5.30;;;2.70;;
70780;SDS011;59514;48.810;2.134;2022-09-20T08:11:27;6.05;;;2.38;;
70780;SDS011;59514;48.810;2.134;2022-09-20T08:13:54;5.13;;;2.63;;
70780;SDS011;59514;48.810;2.134;2022-09-20T08:16:21;6.72;;;2.35;;
70780;SDS011;59514;48.810;2.134;2022-09-20T08:18:48;6.55;;;2.42;;
70780;SDS011;59514;48.810;2.134;2022-09-20T08:21:25;6.13;;;2.33;;
70780;SDS011;59514;48.810;2.134;2022-09-20T08:23:52;7.47;;;3.08;;
70780;SDS011;59514;48.810;2.134;2022-09-20T08:26:19;8.13;;;3.35;;
70780;SDS011;59514;48.810;2.134;2022-09-20T08:28:46;7.05;;;2.60;;
70780;SDS011;59514;48.810;2.134;2022-09-20T08:31:16;7.43;;;2.78;;
70780;SDS011;59514;48.810;2.134;2022-09-20T08:33:46;6.30;;;2.47;;
70780;SDS011;59514;48.810;2.134;2022-09-20T08:36:14;4.72;;;2.47;;
70780;SDS011;59514;48.810;2.134;2022-09-20T08:38:41;6.20;;;2.00;;
70780;SDS011;59514;48.810;2.134;2022-09-20T08:41:10;8.13;;;2.40;;
70780;SDS011;59514;48.810;2.134;2022-09-20T08:43:50;6.63;;;2.45;;
70780;SDS011;59514;48.810;2.134;2022-09-20T08:46:20;6.28;;;2.30;;
70780;SDS011;59514;48.810;2.134;2022-09-20T08:48:51;8.27;;;2.17;;
70780;SDS011;59514;48.810;2.134;2022-09-20T08:51:17;3.95;;;2.50;;
70780;SDS011;59514;48.810;2.134;2022-09-20T08:53:50;5.25;;;2.40;;
70780;SDS011;59514;48.810;2.134;2022-09-20T08:56:18;8.00;;;2.53;;
70780;SDS011;59514;48.810;2.134;2022-09-20T08:58:45;4.68;;;2.10;;
70780;SDS011;59514;48.810;2.134;2022-09-20T09:01:21;5.53;;;2.70;;
70780;SDS011;59514;48.810;2.134;2022-09-20T09:06:37;5.78;;;2.10;;
70780;SDS011;59514;48.810;2.134;2022-09-20T09:09:03;6.80;;;2.47;;
70780;SDS011;59514;48.810;2.134;2022-09-20T09:11:29;6.20;;;2.38;;
70780;SDS011;59514;48.810;2.134;2022-09-20T09:16:51;7.90;;;2.65;;
70780;SDS011;59514;48.810;2.134;2022-09-20T09:19:25;9.90;;;2.65;;
70780;SDS011;59514;48.810;2.134;2022-09-20T09:21:58;8.38;;;2.22;;
70780;SDS011;59514;48.810;2.134;2022-09-20T09:24:25;4.75;;;1.90;;
70780;SDS011;59514;48.810;2.134;2022-09-20T09:26:50;12.00;;;1.88;;
70780;SDS011;59514;48.810;2.134;2022-09-20T09:29:30;7.22;;;2.28;;
70780;SDS011;59514;48.810;2.134;2022-09-20T09:31:57;8.63;;;2.05;;
70780;SDS011;59514;48.810;2.134;2022-09-20T09:34:43;3.78;;;1.48;;
70780;SDS011;59514;48.810;2.134;2022-09-20T09:37:20;5.75;;;1.67;;
70780;SDS011;59514;48.810;2.134;2022-09-20T09:40:12;6.95;;;2.00;;
70780;SDS011;59514;48.810;2.134;2022-09-20T09:42:53;4.70;;;1.90;;
70780;SDS011;59514;48.810;2.134;2022-09-20T09:45:37;6.85;;;1.85;;
70780;SDS011;59514;48.810;2.134;2022-09-20T09:50:47;10.85;;;4.63;;
70780;SDS011;59514;48.810;2.134;2022-09-20T09:53:13;9.07;;;2.90;;
70780;SDS011;59514;48.810;2.134;2022-09-20T09:55:53;6.72;;;2.67;;
70780;SDS011;59514;48.810;2.134;2022-09-20T10:00:51;6.60;;;1.75;;
70780;SDS011;59514;48.810;2.134;2022-09-20T10:13:52;6.40;;;1.60;;
70780;SDS011;59514;48.810;2.134;2022-09-20T10:22:06;6.93;;;1.88;;
70780;SDS011;59514;48.810;2.134;2022-09-20T10:24:45;4.80;;;1.77;;
70780;SDS011;59514;48.810;2.134;2022-09-20T10:36:29;4.72;;;1.10;;
70780;SDS011;59514;48.810;2.134;2022-09-20T10:44:43;3.17;;;1.27;;
70780;SDS011;59514;48.810;2.134;2022-09-20T10:47:17;3.53;;;1.10;;
70780;SDS011;59514;48.810;2.134;2022-09-20T10:52:25;3.08;;;1.27;;
70780;SDS011;59514;48.810;2.134;2022-09-20T11:08:52;8.48;;;1.55;;
70780;SDS011;59514;48.810;2.134;2022-09-20T11:11:36;6.18;;;1.20;;
70780;SDS011;59514;48.810;2.134;2022-09-20T11:14:13;5.57;;;1.08;;
70780;SDS011;59514;48.810;2.134;2022-09-20T11:16:46;4.28;;;1.25;;
70780;SDS011;59514;48.810;2.134;2022-09-20T11:24:42;5.80;;;1.10;;
70780;SDS011;59514;48.810;2.134;2022-09-20T11:27:17;3.67;;;1.02;;
70780;SDS011;59514;48.810;2.134;2022-09-20T11:29:53;2.13;;;0.90;;
70780;SDS011;59514;48.810;2.134;2022-09-20T11:32:21;3.92;;;1.23;;
70780;SDS011;59514;48.810;2.134;2022-09-20T11:34:53;3.15;;;0.88;;
70780;SDS011;59514;48.810;2.134;2022-09-20T11:37:24;3.67;;;1.38;;
70780;SDS011;59514;48.810;2.134;2022-09-20T11:39:58;4.10;;;1.40;;
70780;SDS011;59514;48.810;2.134;2022-09-20T11:42:29;6.20;;;1.40;;
70780;SDS011;59514;48.810;2.134;2022-09-20T11:45:00;5.45;;;1.20;;
70780;SDS011;59514;48.810;2.134;2022-09-20T11:47:28;3.60;;;1.30;;
70780;SDS011;59514;48.810;2.134;2022-09-20T11:58:08;5.68;;;1.25;;
70780;SDS011;59514;48.810;2.134;2022-09-20T12:00:37;3.28;;;1.00;;
70780;SDS011;59514;48.810;2.134;2022-09-20T12:03:06;5.00;;;1.42;;
70780;SDS011;59514;48.810;2.134;2022-09-20T12:05:46;4.03;;;1.23;;
70780;SDS011;59514;48.810;2.134;2022-09-20T12:11:16;10.50;;;7.88;;
70780;SDS011;59514;48.810;2.134;2022-09-20T12:13:56;10.65;;;9.10;;
70780;SDS011;59514;48.810;2.134;2022-09-20T12:16:40;6.47;;;2.72;;
70780;SDS011;59514;48.810;2.134;2022-09-20T12:24:23;6.97;;;1.63;;
70780;SDS011;59514;48.810;2.134;2022-09-20T12:26:51;4.97;;;1.50;;
70780;SDS011;59514;48.810;2.134;2022-09-20T12:31:52;6.95;;;1.20;;
70780;SDS011;59514;48.810;2.134;2022-09-20T12:39:26;2.97;;;0.80;;
70780;SDS011;59514;48.810;2.134;2022-09-20T12:42:00;4.93;;;1.30;;
70780;SDS011;59514;48.810;2.134;2022-09-20T12:58:05;5.80;;;1.50;;
70780;SDS011;59514;48.810;2.134;2022-09-20T13:00:41;2.50;;;1.08;;
70780;SDS011;59514;48.810;2.134;2022-09-20T13:14:15;2.67;;;1.00;;
70780;SDS011;59514;48.810;2.134;2022-09-20T13:19:31;3.35;;;0.70;;
70780;SDS011;59514;48.810;2.134;2022-09-20T13:24:39;3.05;;;0.80;;
70780;SDS011;59514;48.810;2.134;2022-09-20T13:27:13;2.63;;;0.70;;
70780;SDS011;59514;48.810;2.134;2022-09-20T13:29:43;1.95;;;0.70;;
70780;SDS011;59514;48.810;2.134;2022-09-20T13:37:36;1.42;;;0.82;;
70780;SDS011;59514;48.810;2.134;2022-09-20T13:40:15;2.38;;;0.95;;
70780;SDS011;59514;48.810;2.134;2022-09-20T13:42:42;3.00;;;0.77;;
70780;SDS011;59514;48.810;2.134;2022-09-20T13:45:08;3.33;;;0.70;;
70780;SDS011;59514;48.810;2.134;2022-09-20T13:47:39;3.03;;;0.93;;
70780;SDS011;59514;48.810;2.134;2022-09-20T13:50:19;3.95;;;1.00;;
70780;SDS011;59514;48.810;2.134;2022-09-20T13:53:13;2.13;;;0.80;;
70780;SDS011;59514;48.810;2.134;2022-09-20T13:55:41;2.63;;;1.05;;
70780;SDS011;59514;48.810;2.134;2022-09-20T14:01:20;3.15;;;1.20;;
70780;SDS011;59514;48.810;2.134;2022-09-20T14:03:54;2.00;;;1.08;;
70780;SDS011;59514;48.810;2.134;2022-09-20T14:06:27;4.88;;;1.20;;
70780;SDS011;59514;48.810;2.134;2022-09-20T14:08:53;1.75;;;0.88;;
70780;SDS011;59514;48.810;2.134;2022-09-20T14:11:22;3.13;;;0.93;;
70780;SDS011;59514;48.810;2.134;2022-09-20T14:13:53;1.52;;;0.80;;
70780;SDS011;59514;48.810;2.134;2022-09-20T14:16:21;2.42;;;0.95;;
70780;SDS011;59514;48.810;2.134;2022-09-20T14:18:53;2.80;;;1.30;;
70780;SDS011;59514;48.810;2.134;2022-09-20T14:21:31;5.40;;;1.52;;
70780;SDS011;59514;48.810;2.134;2022-09-20T14:23:58;1.90;;;1.00;;
70780;SDS011;59514;48.810;2.134;2022-09-20T14:26:36;4.80;;;0.95;;
70780;SDS011;59514;48.810;2.134;2022-09-20T14:32:08;1.88;;;1.08;;
70780;SDS011;59514;48.810;2.134;2022-09-20T14:34:35;3.42;;;1.25;;
70780;SDS011;59514;48.810;2.134;2022-09-20T14:37:08;2.10;;;1.30;;
70780;SDS011;59514;48.810;2.134;2022-09-20T14:39:48;2.95;;;1.30;;
70780;SDS011;59514;48.810;2.134;2022-09-20T14:45:05;3.05;;;1.13;;
70780;SDS011;59514;48.810;2.134;2022-09-20T14:47:38;3.15;;;1.05;;
70780;SDS011;59514;48.810;2.134;2022-09-20T14:50:30;1.77;;;0.95;;
70780;SDS011;59514;48.810;2.134;2022-09-20T14:56:05;2.97;;;1.02;;
70780;SDS011;59514;48.810;2.134;2022-09-20T14:58:40;2.38;;;1.10;;
70780;SDS011;59514;48.810;2.134;2022-09-20T15:02:00;3.78;;;1.52;;
70780;SDS011;59514;48.810;2.134;2022-09-20T15:04:29;3.67;;;1.17;;
70780;SDS011;59514;48.810;2.134;2022-09-20T15:07:03;1.95;;;1.10;;
70780;SDS011;59514;48.810;2.134;2022-09-20T15:14:42;2.65;;;1.20;;
70780;SDS011;59514;48.810;2.134;2022-09-20T15:17:14;3.03;;;1.23;;
70780;SDS011;59514;48.810;2.134;2022-09-20T15:19:45;2.78;;;1.30;;
70780;SDS011;59514;48.810;2.134;2022-09-20T15:22:11;4.78;;;1.40;;
70780;SDS011;59514;48.810;2.134;2022-09-20T15:24:38;4.85;;;1.60;;
70780;SDS011;59514;48.810;2.134;2022-09-20T15:27:03;2.55;;;1.10;;
70780;SDS011;59514;48.810;2.134;2022-09-20T15:29:29;3.95;;;1.40;;
70780;SDS011;59514;48.810;2.134;2022-09-20T15:31:54;2.75;;;1.13;;
70780;SDS011;59514;48.810;2.134;2022-09-20T15:34:20;4.43;;;1.27;;
70780;SDS011;59514;48.810;2.134;2022-09-20T15:36:45;3.80;;;1.13;;
70780;SDS011;59514;48.810;2.134;2022-09-20T15:39:11;3.47;;;1.55;;
70780;SDS011;59514;48.810;2.134;2022-09-20T15:41:36;4.47;;;1.70;;
70780;SDS011;59514;48.810;2.134;2022-09-20T15:44:05;4.30;;;1.10;;
70780;SDS011;59514;48.810;2.134;2022-09-20T15:46:32;5.25;;;1.25;;
70780;SDS011;59514;48.810;2.134;2022-09-20T15:48:59;3.63;;;1.40;;
70780;SDS011;59514;48.810;2.134;2022-09-20T15:51:26;1.80;;;1.27;;
70780;SDS011;59514;48.810;2.134;2022-09-20T15:56:30;2.95;;;1.70;;
70780;SDS011;59514;48.810;2.134;2022-09-20T15:58:58;3.88;;;2.10;;
70780;SDS011;59514;48.810;2.134;2022-09-20T16:01:35;2.40;;;1.33;;
70780;SDS011;59514;48.810;2.134;2022-09-20T16:04:11;4.75;;;1.40;;
70780;SDS011;59514;48.810;2.134;2022-09-20T16:06:38;3.08;;;1.30;;
70780;SDS011;59514;48.810;2.134;2022-09-20T16:09:06;4.57;;;1.23;;
70780;SDS011;59514;48.810;2.134;2022-09-20T16:11:32;2.33;;;1.30;;
70780;SDS011;59514;48.810;2.134;2022-09-20T16:13:58;3.72;;;1.30;;
70780;SDS011;59514;48.810;2.134;2022-09-20T16:16:25;4.28;;;1.40;;
70780;SDS011;59514;48.810;2.134;2022-09-20T16:18:51;3.63;;;1.38;;
70780;SDS011;59514;48.810;2.134;2022-09-20T16:21:36;2.60;;;1.30;;
70780;SDS011;59514;48.810;2.134;2022-09-20T16:24:03;4.35;;;1.58;;
70780;SDS011;59514;48.810;2.134;2022-09-20T16:26:29;1.80;;;1.00;;
70780;SDS011;59514;48.810;2.134;2022-09-20T16:28:55;4.00;;;1.38;;
70780;SDS011;59514;48.810;2.134;2022-09-20T16:33:54;2.95;;;1.25;;
70780;SDS011;59514;48.810;2.134;2022-09-20T16:36:20;4.55;;;1.40;;
70780;SDS011;59514;48.810;2.134;2022-09-20T16:38:48;4.35;;;1.48;;
70780;SDS011;59514;48.810;2.134;2022-09-20T16:41:14;3.30;;;1.10;;
70780;SDS011;59514;48.810;2.134;2022-09-20T16:43:39;2.40;;;1.35;;
70780;SDS011;59514;48.810;2.134;2022-09-20T16:46:05;3.70;;;1.45;;
70780;SDS011;59514;48.810;2.134;2022-09-20T16:48:31;3.45;;;1.35;;
70780;SDS011;59514;48.810;2.134;2022-09-20T16:50:57;6.25;;;2.33;;
70780;SDS011;59514;48.810;2.134;2022-09-20T16:53:24;5.30;;;1.48;;
70780;SDS011;59514;48.810;2.134;2022-09-20T16:55:50;3.15;;;1.50;;
70780;SDS011;59514;48.810;2.134;2022-09-20T16:58:16;2.78;;;1.42;;
70780;SDS011;59514;48.810;2.134;2022-09-20T17:00:41;5.40;;;1.60;;
70780;SDS011;59514;48.810;2.134;2022-09-20T17:03:07;3.50;;;1.50;;
70780;SDS011;59514;48.810;2.134;2022-09-20T17:05:32;5.20;;;1.70;;
70780;SDS011;59514;48.810;2.134;2022-09-20T17:07:58;3.08;;;1.40;;
70780;SDS011;59514;48.810;2.134;2022-09-20T17:10:24;6.20;;;3.22;;
70780;SDS011;59514;48.810;2.134;2022-09-20T17:12:53;9.90;;;7.07;;
70780;SDS011;59514;48.810;2.134;2022-09-20T17:15:22;7.32;;;4.93;;
70780;SDS011;59514;48.810;2.134;2022-09-20T17:17:47;7.43;;;3.17;;
70780;SDS011;59514;48.810;2.134;2022-09-20T17:20:14;5.60;;;1.90;;
70780;SDS011;59514;48.810;2.134;2022-09-20T17:22:39;5.07;;;1.48;;
70780;SDS011;59514;48.810;2.134;2022-09-20T17:25:05;4.80;;;1.75;;
70780;SDS011;59514;48.810;2.134;2022-09-20T17:27:31;3.65;;;1.60;;
70780;SDS011;59514;48.810;2.134;2022-09-20T17:29:56;5.50;;;1.50;;
70780;SDS011;59514;48.810;2.134;2022-09-20T17:32:22;4.15;;;1.80;;
70780;SDS011;59514;48.810;2.134;2022-09-20T17:34:47;3.40;;;1.88;;
70780;SDS011;59514;48.810;2.134;2022-09-20T17:37:13;5.72;;;1.65;;
70780;SDS011;59514;48.810;2.134;2022-09-20T17:39:38;3.40;;;1.70;;
70780;SDS011;59514;48.810;2.134;2022-09-20T17:42:04;2.47;;;1.50;;
70780;SDS011;59514;48.810;2.134;2022-09-20T17:44:30;4.60;;;1.50;;
70780;SDS011;59514;48.810;2.134;2022-09-20T17:47:00;2.17;;;1.55;;
70780;SDS011;59514;48.810;2.134;2022-09-20T17:49:26;3.88;;;1.60;;
70780;SDS011;59514;48.810;2.134;2022-09-20T17:51:52;3.20;;;1.38;;
70780;SDS011;59514;48.810;2.134;2022-09-20T17:54:19;4.45;;;1.83;;
70780;SDS011;59514;48.810;2.134;2022-09-20T17:56:46;5.57;;;2.10;;
70780;SDS011;59514;48.810;2.134;2022-09-20T17:59:14;8.15;;;4.63;;
70780;SDS011;59514;48.810;2.134;2022-09-20T18:01:40;5.78;;;4.13;;
70780;SDS011;59514;48.810;2.134;2022-09-20T18:04:07;2.83;;;2.10;;
70780;SDS011;59514;48.810;2.134;2022-09-20T18:06:37;4.80;;;2.20;;
70780;SDS011;59514;48.810;2.134;2022-09-20T18:09:10;3.00;;;2.60;;
70780;SDS011;59514;48.810;2.134;2022-09-20T18:11:42;3.85;;;3.28;;
70780;SDS011;59514;48.810;2.134;2022-09-20T18:14:10;4.88;;;3.10;;
70780;SDS011;59514;48.810;2.134;2022-09-20T18:16:37;5.47;;;2.67;;
70780;SDS011;59514;48.810;2.134;2022-09-20T18:19:03;2.17;;;2.00;;
70780;SDS011;59514;48.810;2.134;2022-09-20T18:21:29;3.95;;;2.22;;
70780;SDS011;59514;48.810;2.134;2022-09-20T18:23:56;3.70;;;2.75;;
70780;SDS011;59514;48.810;2.134;2022-09-20T18:26:23;2.72;;;2.30;;
70780;SDS011;59514;48.810;2.134;2022-09-20T18:31:44;4.10;;;3.30;;
70780;SDS011;59514;48.810;2.134;2022-09-20T18:34:11;4.80;;;3.95;;
70780;SDS011;59514;48.810;2.134;2022-09-20T18:36:51;5.47;;;3.85;;
70780;SDS011;59514;48.810;2.134;2022-09-20T18:39:22;6.10;;;4.50;;
70780;SDS011;59514;48.810;2.134;2022-09-20T18:41:49;5.25;;;4.03;;
70780;SDS011;59514;48.810;2.134;2022-09-20T18:44:14;5.95;;;3.70;;
70780;SDS011;59514;48.810;2.134;2022-09-20T18:46:42;4.85;;;3.47;;
70780;SDS011;59514;48.810;2.134;2022-09-20T18:49:08;4.22;;;3.22;;
70780;SDS011;59514;48.810;2.134;2022-09-20T18:51:38;3.65;;;2.80;;
70780;SDS011;59514;48.810;2.134;2022-09-20T18:54:03;4.55;;;2.65;;
70780;SDS011;59514;48.810;2.134;2022-09-20T18:56:30;4.53;;;2.65;;
70780;SDS011;59514;48.810;2.134;2022-09-20T18:59:01;3.25;;;2.53;;
70780;SDS011;59514;48.810;2.134;2022-09-20T19:06:43;5.18;;;3.20;;
70780;SDS011;59514;48.810;2.134;2022-09-20T19:09:28;5.18;;;2.75;;
70780;SDS011;59514;48.810;2.134;2022-09-20T19:12:19;4.00;;;3.05;;
70780;SDS011;59514;48.810;2.134;2022-09-20T19:17:21;5.18;;;4.20;;
70780;SDS011;59514;48.810;2.134;2022-09-20T19:19:58;5.45;;;4.30;;
70780;SDS011;59514;48.810;2.134;2022-09-20T19:22:40;7.60;;;5.22;;
70780;SDS011;59514;48.810;2.134;2022-09-20T19:25:24;5.70;;;5.20;;
70780;SDS011;59514;48.810;2.134;2022-09-20T19:27:58;4.97;;;4.55;;
70780;SDS011;59514;48.810;2.134;2022-09-20T19:30:24;6.75;;;5.20;;
70780;SDS011;59514;48.810;2.134;2022-09-20T19:32:49;7.40;;;5.20;;
70780;SDS011;59514;48.810;2.134;2022-09-20T19:35:19;7.15;;;4.90;;
70780;SDS011;59514;48.810;2.134;2022-09-20T19:37:55;5.63;;;4.72;;
70780;SDS011;59514;48.810;2.134;2022-09-20T19:48:41;5.78;;;4.78;;
70780;SDS011;59514;48.810;2.134;2022-09-20T19:51:14;6.57;;;4.90;;
70780;SDS011;59514;48.810;2.134;2022-09-20T19:53:41;7.13;;;5.43;;
70780;SDS011;59514;48.810;2.134;2022-09-20T19:56:12;7.65;;;6.13;;
70780;SDS011;59514;48.810;2.134;2022-09-20T19:58:46;9.00;;;7.18;;
70780;SDS011;59514;48.810;2.134;2022-09-20T20:01:17;10.27;;;7.00;;
70780;SDS011;59514;48.810;2.134;2022-09-20T20:03:49;9.35;;;6.78;;
70780;SDS011;59514;48.810;2.134;2022-09-20T20:14:55;7.50;;;6.65;;
70780;SDS011;59514;48.810;2.134;2022-09-20T20:25:40;10.65;;;5.60;;
70780;SDS011;59514;48.810;2.134;2022-09-20T20:28:15;6.25;;;4.80;;
70780;SDS011;59514;48.810;2.134;2022-09-20T20:30:40;5.22;;;4.72;;
70780;SDS011;59514;48.810;2.134;2022-09-20T20:33:06;5.60;;;4.82;;
70780;SDS011;59514;48.810;2.134;2022-09-20T20:35:32;8.15;;;4.95;;
70780;SDS011;59514;48.810;2.134;2022-09-20T20:37:58;5.38;;;4.30;;
70780;SDS011;59514;48.810;2.134;2022-09-20T20:40:23;5.55;;;4.95;;
70780;SDS011;59514;48.810;2.134;2022-09-20T20:42:53;6.53;;;5.03;;
70780;SDS011;59514;48.810;2.134;2022-09-20T20:45:25;7.50;;;5.57;;
70780;SDS011;59514;48.810;2.134;2022-09-20T20:47:54;8.18;;;5.00;;
70780;SDS011;59514;48.810;2.134;2022-09-20T20:50:20;6.07;;;5.47;;
70780;SDS011;59514;48.810;2.134;2022-09-20T20:52:50;9.13;;;5.70;;
70780;SDS011;59514;48.810;2.134;2022-09-20T20:55:16;7.82;;;5.90;;
70780;SDS011;59514;48.810;2.134;2022-09-20T20:57:41;7.03;;;5.82;;
70780;SDS011;59514;48.810;2.134;2022-09-20T21:00:07;7.47;;;6.53;;
70780;SDS011;59514;48.810;2.134;2022-09-20T21:02:32;8.93;;;5.93;;
70780;SDS011;59514;48.810;2.134;2022-09-20T21:04:58;7.30;;;6.60;;
70780;SDS011;59514;48.810;2.134;2022-09-20T21:07:24;8.25;;;7.25;;
70780;SDS011;59514;48.810;2.134;2022-09-20T21:09:50;13.05;;;10.90;;
70780;SDS011;59514;48.810;2.134;2022-09-20T21:12:15;7.63;;;5.57;;
70780;SDS011;59514;48.810;2.134;2022-09-20T21:14:42;7.75;;;5.60;;
70780;SDS011;59514;48.810;2.134;2022-09-20T21:17:08;7.10;;;5.25;;
70780;SDS011;59514;48.810;2.134;2022-09-20T21:19:34;6.78;;;5.32;;
70780;SDS011;59514;48.810;2.134;2022-09-20T21:21:59;5.53;;;5.03;;